Time;durP1;ratioP1;P1;durP2;ratioP2;P2;SDS_P1;SDS_P2;PMS_P1;PMS_P2;Temp;Humidity;BMP_temperature;BMP_pressure;BME280_temperature;BME280_humidity;BME280_pressure;Samples;Min_cycle;Max_cycle;Signal;HPM_P1;HPM_P2
2021/07/23 00:00:29;;;;;;;6.10;5.03;;;22.10;50.90;;;;;;1475302;40;20029;-61
2021/07/23 00:01:51;;;;;;;5.28;4.32;;;22.10;50.90;;;;;;1475747;40;20033;-61
2021/07/23 00:03:12;;;;;;;5.22;4.53;;;22.10;51.00;;;;;;1475519;40;20081;-61
2021/07/23 00:04:32;;;;;;;4.90;4.18;;;22.10;51.10;;;;;;1476805;40;20743;-61
2021/07/23 00:05:53;;;;;;;5.00;4.05;;;22.00;51.10;;;;;;1476610;40;20095;-61
2021/07/23 00:07:14;;;;;;;5.78;4.03;;;22.00;51.10;;;;;;1475396;40;20095;-61
2021/07/23 00:08:35;;;;;;;5.68;4.70;;;22.00;51.10;;;;;;1477103;40;20361;-61
2021/07/23 00:09:56;;;;;;;6.47;4.80;;;22.00;51.20;;;;;;1477484;40;20062;-61
2021/07/23 00:11:17;;;;;;;6.60;4.85;;;21.90;51.20;;;;;;1475170;40;20033;-61
2021/07/23 00:12:38;;;;;;;5.90;4.75;;;21.90;51.30;;;;;;1476794;40;20052;-61
2021/07/23 00:13:59;;;;;;;5.55;4.55;;;21.90;51.30;;;;;;1474944;40;20045;-61
2021/07/23 00:15:20;;;;;;;5.13;4.63;;;21.90;51.50;;;;;;1475308;40;20144;-61
2021/07/23 00:16:41;;;;;;;5.68;4.78;;;21.80;51.50;;;;;;1474537;40;20142;-61
2021/07/23 00:18:01;;;;;;;4.97;4.13;;;21.80;51.40;;;;;;1475833;40;20022;-61
2021/07/23 00:19:22;;;;;;;5.05;4.63;;;21.80;51.50;;;;;;1477377;40;20270;-61
2021/07/23 00:20:43;;;;;;;5.22;4.68;;;21.80;51.60;;;;;;1475767;40;20022;-61
2021/07/23 00:22:04;;;;;;;6.78;5.07;;;21.80;51.70;;;;;;1475783;40;20029;-61
2021/07/23 00:23:25;;;;;;;5.18;4.68;;;21.80;51.70;;;;;;1476119;40;20669;-61
2021/07/23 00:24:46;;;;;;;6.75;4.68;;;21.70;51.70;;;;;;1475508;40;20045;-61
2021/07/23 00:26:12;;;;;;;5.78;4.32;;;21.70;51.80;;;;;;1476284;40;20025;-61
2021/07/23 00:27:33;;;;;;;6.40;4.60;;;21.70;52.00;;;;;;1475797;40;20049;-61
2021/07/23 00:28:54;;;;;;;6.57;4.60;;;21.70;51.80;;;;;;1475482;40;20046;-61
2021/07/23 00:30:15;;;;;;;7.93;4.97;;;21.70;51.90;;;;;;1475341;40;20033;-61
2021/07/23 00:31:36;;;;;;;7.38;4.28;;;21.70;52.00;;;;;;1477713;40;20033;-61
2021/07/23 00:32:58;;;;;;;5.00;4.50;;;21.70;52.10;;;;;;1475035;40;20037;-61
2021/07/23 00:34:19;;;;;;;6.10;4.72;;;21.60;52.10;;;;;;1475909;40;20456;-61
2021/07/23 00:35:40;;;;;;;4.95;4.43;;;21.60;52.10;;;;;;1474888;40;20068;-61
2021/07/23 00:37:01;;;;;;;6.32;5.15;;;21.60;52.30;;;;;;1476430;40;20018;-61
2021/07/23 00:38:22;;;;;;;5.78;4.95;;;21.60;52.30;;;;;;1475255;40;20383;-61
2021/07/23 00:39:42;;;;;;;5.00;4.50;;;21.60;52.40;;;;;;1476934;40;20033;-61
2021/07/23 00:41:03;;;;;;;5.13;4.63;;;21.50;52.30;;;;;;1475249;40;20021;-61
2021/07/23 00:42:53;;;;;;;5.32;4.80;;;21.50;52.40;;;;;;1475857;40;20036;-61
2021/07/23 00:44:14;;;;;;;;;;;21.50;52.90;;;;;;1473296;40;20030;-61
2021/07/23 00:45:35;;;;;;;5.00;4.40;;;21.50;52.40;;;;;;1476184;40;20274;-61
2021/07/23 00:46:56;;;;;;;4.90;4.40;;;21.50;51.90;;;;;;1475947;40;20021;-61
2021/07/23 00:48:17;;;;;;;4.35;3.92;;;21.50;52.10;;;;;;1475606;40;20398;-61
2021/07/23 00:49:38;;;;;;;5.15;4.65;;;21.50;52.20;;;;;;1477007;40;20374;-61
2021/07/23 00:50:59;;;;;;;4.50;4.00;;;21.40;52.40;;;;;;1474883;40;20033;-61
2021/07/23 00:52:20;;;;;;;6.10;4.70;;;21.40;52.50;;;;;;1475868;40;20033;-61
2021/07/23 00:53:41;;;;;;;5.13;4.50;;;21.40;52.50;;;;;;1477379;40;20290;-61
2021/07/23 00:55:02;;;;;;;4.57;4.18;;;21.40;52.60;;;;;;1475610;40;20143;-61
2021/07/23 00:56:26;;;;;;;4.63;4.20;;;21.30;52.70;;;;;;1474898;40;20048;-61
2021/07/23 00:57:47;;;;;;;6.57;4.60;;;21.30;52.70;;;;;;1477057;40;20115;-61
2021/07/23 00:59:08;;;;;;;5.63;5.03;;;21.30;52.80;;;;;;1475027;40;20018;-60
2021/07/23 01:00:30;;;;;;;5.55;4.85;;;21.30;52.80;;;;;;1475224;40;20037;-61
2021/07/23 01:01:50;;;;;;;5.53;4.65;;;21.30;52.90;;;;;;1475450;40;20032;-61
2021/07/23 01:03:12;;;;;;;5.90;4.93;;;21.20;53.00;;;;;;1475263;40;20084;-62
2021/07/23 01:04:34;;;;;;;5.60;4.55;;;21.20;53.00;;;;;;1475733;40;20259;-62
2021/07/23 01:05:56;;;;;;;5.43;4.90;;;21.20;53.10;;;;;;1470422;40;20146;-62
2021/07/23 01:07:17;;;;;;;5.78;4.63;;;21.20;53.20;;;;;;1475074;40;20594;-61
2021/07/23 01:08:38;;;;;;;5.32;4.38;;;21.20;53.20;;;;;;1475200;40;20030;-61
2021/07/23 01:10:00;;;;;;;8.75;5.68;;;21.20;53.20;;;;;;1476009;40;20118;-61
2021/07/23 01:11:25;;;;;;;5.03;4.53;;;21.10;53.40;;;;;;1475935;40;20055;-61
2021/07/23 01:12:48;;;;;;;8.15;5.43;;;21.10;53.50;;;;;;1475501;40;20033;-61
2021/07/23 01:14:09;;;;;;;4.97;4.47;;;21.10;53.30;;;;;;1474942;40;20149;-61
2021/07/23 01:15:29;;;;;;;5.85;5.22;;;21.10;53.30;;;;;;1475653;40;20049;-61
2021/07/23 01:16:50;;;;;;;5.93;4.68;;;21.10;53.30;;;;;;1475204;40;20283;-62
2021/07/23 01:18:12;;;;;;;5.43;4.80;;;21.00;53.30;;;;;;1475348;40;20040;-61
2021/07/23 01:19:45;;;;;;;5.50;5.00;;;21.00;53.40;;;;;;1480398;40;20057;-61
2021/07/23 01:21:06;;;;;;;6.40;5.10;;;21.00;53.70;;;;;;1476080;40;20089;-61
2021/07/23 01:22:29;;;;;;;5.60;4.65;;;21.00;53.40;;;;;;1475302;40;20034;-61
2021/07/23 01:23:50;;;;;;;5.82;4.68;;;21.00;53.50;;;;;;1475418;40;20381;-61
2021/07/23 01:25:12;;;;;;;5.25;4.75;;;21.00;53.60;;;;;;1475059;40;20025;-61
2021/07/23 01:26:33;;;;;;;5.80;5.05;;;20.90;53.70;;;;;;1476035;40;20037;-61
2021/07/23 01:27:55;;;;;;;5.15;4.65;;;21.00;53.70;;;;;;1475986;40;20125;-61
2021/07/23 01:29:16;;;;;;;5.78;4.93;;;20.90;53.80;;;;;;1474896;40;20036;-61
2021/07/23 01:30:37;;;;;;;5.80;4.85;;;20.90;53.80;;;;;;1476378;40;20020;-61
2021/07/23 01:31:58;;;;;;;5.10;4.47;;;20.90;53.80;;;;;;1474928;40;20035;-61
2021/07/23 01:33:19;;;;;;;6.13;4.60;;;20.90;53.90;;;;;;1477199;40;20040;-61
2021/07/23 01:34:40;;;;;;;6.30;5.22;;;20.80;54.00;;;;;;1475448;40;20053;-61
2021/07/23 01:36:01;;;;;;;5.97;4.95;;;20.80;54.00;;;;;;1475471;40;20066;-61
2021/07/23 01:37:24;;;;;;;6.20;4.93;;;20.80;54.00;;;;;;1476660;40;20025;-61
2021/07/23 01:38:47;;;;;;;7.18;4.72;;;20.80;54.00;;;;;;1475881;40;20652;-61
2021/07/23 01:40:08;;;;;;;6.80;5.13;;;20.80;54.10;;;;;;1477674;40;20041;-61
2021/07/23 01:41:30;;;;;;;5.32;4.60;;;20.80;54.10;;;;;;1475359;40;20044;-60
2021/07/23 01:42:51;;;;;;;5.70;4.90;;;20.80;54.20;;;;;;1477439;40;20353;-61
2021/07/23 01:44:12;;;;;;;6.13;5.07;;;20.80;54.20;;;;;;1477215;40;20041;-61
2021/07/23 01:45:33;;;;;;;4.72;4.32;;;20.80;54.20;;;;;;1476633;40;20048;-61
2021/07/23 01:46:54;;;;;;;7.75;4.85;;;20.80;54.20;;;;;;1476145;40;20044;-61
2021/07/23 01:48:15;;;;;;;5.70;5.10;;;20.70;54.20;;;;;;1469827;40;20094;-61
2021/07/23 01:49:36;;;;;;;5.55;4.97;;;20.70;54.30;;;;;;1472512;40;20029;-60
2021/07/23 01:50:57;;;;;;;5.72;5.10;;;20.70;54.30;;;;;;1477321;40;20348;-61
2021/07/23 01:52:18;;;;;;;9.02;5.00;;;20.70;54.30;;;;;;1475270;40;20036;-61
2021/07/23 01:53:39;;;;;;;5.32;4.82;;;20.70;54.20;;;;;;1477743;40;20382;-61
2021/07/23 01:55:00;;;;;;;8.27;5.40;;;20.70;54.30;;;;;;1476215;40;20113;-61
2021/07/23 01:56:20;;;;;;;7.32;4.97;;;20.70;54.50;;;;;;1475217;40;20599;-61
2021/07/23 01:57:41;;;;;;;5.22;4.63;;;20.60;54.50;;;;;;1477364;40;20078;-61
2021/07/23 01:59:02;;;;;;;8.00;5.35;;;20.60;54.50;;;;;;1474185;40;20370;-61
2021/07/23 02:00:23;;;;;;;7.60;5.05;;;20.60;54.50;;;;;;1475608;40;20029;-61
2021/07/23 02:01:44;;;;;;;8.13;5.20;;;20.60;54.50;;;;;;1476012;40;20033;-61
2021/07/23 02:03:05;;;;;;;6.07;5.47;;;20.60;54.60;;;;;;1475449;40;20069;-61
2021/07/23 02:04:26;;;;;;;5.10;4.60;;;20.60;54.60;;;;;;1475482;40;20587;-61
2021/07/23 02:05:47;;;;;;;6.47;4.72;;;20.50;54.50;;;;;;1475557;40;20037;-60
2021/07/23 02:07:08;;;;;;;6.57;4.70;;;20.50;54.80;;;;;;1474941;40;20025;-61
2021/07/23 02:08:29;;;;;;;6.18;4.95;;;20.50;54.80;;;;;;1480164;40;20027;-61
2021/07/23 02:09:49;;;;;;;5.20;4.60;;;20.50;54.80;;;;;;1476568;40;20135;-61
2021/07/23 02:11:10;;;;;;;7.95;4.93;;;20.50;54.70;;;;;;1474419;40;20033;-61
2021/07/23 02:12:31;;;;;;;5.70;5.10;;;20.50;54.90;;;;;;1475655;40;20044;-61
2021/07/23 02:13:52;;;;;;;5.68;5.07;;;20.50;55.00;;;;;;1470388;40;20028;-61
2021/07/23 02:15:13;;;;;;;7.45;5.22;;;20.40;55.00;;;;;;1473794;40;20361;-61
2021/07/23 02:16:35;;;;;;;5.60;5.05;;;20.50;55.10;;;;;;1475754;40;20026;-61
2021/07/23 02:17:55;;;;;;;5.82;5.15;;;20.50;55.20;;;;;;1474666;40;20156;-61
2021/07/23 02:19:16;;;;;;;6.63;4.95;;;20.40;55.20;;;;;;1475283;40;20469;-61
2021/07/23 02:20:38;;;;;;;4.72;4.28;;;20.40;55.10;;;;;;1476379;40;20659;-61
2021/07/23 02:21:59;;;;;;;7.38;5.35;;;20.40;55.10;;;;;;1475819;40;20390;-61
2021/07/23 02:23:19;;;;;;;7.43;5.05;;;20.40;55.20;;;;;;1475497;40;20025;-61
2021/07/23 02:24:40;;;;;;;6.32;5.45;;;20.40;55.20;;;;;;1474997;40;20037;-61
2021/07/23 02:26:01;;;;;;;6.05;4.53;;;20.40;55.20;;;;;;1473156;40;20282;-60
2021/07/23 02:27:22;;;;;;;6.10;5.43;;;20.30;55.20;;;;;;1477221;40;20065;-61
2021/07/23 02:28:43;;;;;;;6.38;4.95;;;20.30;55.20;;;;;;1472555;40;20282;-61
2021/07/23 02:30:05;;;;;;;6.72;4.95;;;20.30;55.20;;;;;;1474306;40;20030;-61
2021/07/23 02:31:26;;;;;;;6.85;5.22;;;20.30;55.20;;;;;;1473176;40;20348;-61
2021/07/23 02:32:47;;;;;;;5.65;5.13;;;20.30;55.30;;;;;;1476007;40;20135;-61
2021/07/23 02:34:08;;;;;;;6.68;5.20;;;20.30;55.40;;;;;;1475379;40;20060;-61
2021/07/23 02:35:28;;;;;;;5.35;4.63;;;20.30;55.50;;;;;;1476644;40;20049;-61
2021/07/23 02:36:50;;;;;;;6.28;5.18;;;20.30;55.50;;;;;;1475919;40;20090;-61
2021/07/23 02:38:11;;;;;;;5.93;5.00;;;20.20;55.50;;;;;;1475712;40;20386;-60
2021/07/23 02:39:31;;;;;;;5.85;5.03;;;20.20;55.60;;;;;;1476707;40;20351;-61
2021/07/23 02:40:54;;;;;;;6.78;5.25;;;20.20;55.60;;;;;;1474692;40;20022;-61
2021/07/23 02:42:15;;;;;;;5.53;4.72;;;20.20;55.60;;;;;;1476793;40;20037;-61
2021/07/23 02:43:36;;;;;;;7.80;5.45;;;20.20;55.70;;;;;;1476765;40;20035;-61
2021/07/23 02:44:57;;;;;;;6.65;5.25;;;20.20;55.70;;;;;;1474403;40;20041;-61
2021/07/23 02:46:18;;;;;;;7.20;5.18;;;20.10;55.70;;;;;;1474902;40;20025;-61
2021/07/23 02:47:39;;;;;;;5.13;4.63;;;20.10;55.70;;;;;;1476847;40;20053;-61
2021/07/23 02:48:59;;;;;;;8.45;5.20;;;20.10;55.70;;;;;;1476705;40;20024;-61
2021/07/23 02:50:20;;;;;;;6.50;5.07;;;20.10;55.80;;;;;;1475644;40;20048;-60
2021/07/23 02:51:41;;;;;;;6.05;5.38;;;20.10;55.90;;;;;;1475584;40;20038;-61
2021/07/23 02:53:03;;;;;;;5.80;4.95;;;20.00;55.90;;;;;;1474120;40;20519;-61
2021/07/23 02:54:24;;;;;;;5.43;4.75;;;20.00;55.90;;;;;;1469688;40;20050;-61
2021/07/23 02:55:49;;;;;;;5.57;5.03;;;20.00;56.00;;;;;;1473612;40;20619;-61
2021/07/23 02:57:09;;;;;;;5.65;5.03;;;20.00;56.00;;;;;;1475165;40;20049;-61
2021/07/23 02:58:30;;;;;;;5.82;4.70;;;20.00;56.00;;;;;;1475368;40;20030;-61
2021/07/23 02:59:51;;;;;;;6.68;5.68;;;20.00;56.00;;;;;;1476473;40;20030;-61
2021/07/23 03:01:12;;;;;;;5.47;4.97;;;19.90;56.00;;;;;;1474513;40;20097;-60
2021/07/23 03:02:34;;;;;;;5.60;4.97;;;19.90;56.20;;;;;;1476406;40;20026;-61
2021/07/23 03:03:55;;;;;;;5.95;5.20;;;19.90;56.20;;;;;;1477226;40;20041;-61
2021/07/23 03:05:16;;;;;;;6.75;5.20;;;19.90;56.20;;;;;;1474943;40;20032;-61
2021/07/23 03:06:37;;;;;;;7.55;6.18;;;19.90;56.40;;;;;;1477733;40;20093;-60
2021/07/23 03:07:58;;;;;;;6.50;5.65;;;19.90;56.40;;;;;;1476236;40;20119;-61
2021/07/23 03:09:19;;;;;;;7.95;5.25;;;19.80;56.40;;;;;;1475127;40;20029;-60
2021/07/23 03:10:40;;;;;;;8.10;5.53;;;19.80;56.50;;;;;;1476371;40;20037;-60
2021/07/23 03:12:01;;;;;;;8.80;6.22;;;19.80;56.50;;;;;;1475869;40;20029;-60
2021/07/23 03:13:22;;;;;;;6.15;5.50;;;19.80;56.60;;;;;;1475132;40;21799;-60
2021/07/23 03:14:43;;;;;;;7.53;5.40;;;19.80;56.70;;;;;;1476653;40;20033;-60
2021/07/23 03:16:11;;;;;;;6.07;5.18;;;19.80;56.70;;;;;;1475452;40;20101;-60
2021/07/23 03:17:32;;;;;;;5.78;4.85;;;19.80;56.90;;;;;;1476056;40;20040;-60
2021/07/23 03:18:54;;;;;;;5.95;4.85;;;19.70;56.60;;;;;;1476950;40;20029;-60
2021/07/23 03:20:15;;;;;;;8.23;5.43;;;19.80;56.70;;;;;;1475665;40;20038;-60
2021/07/23 03:21:35;;;;;;;5.60;5.00;;;19.70;56.80;;;;;;1475644;40;20029;-60
2021/07/23 03:22:56;;;;;;;5.78;5.28;;;19.70;56.80;;;;;;1475834;40;20033;-60
2021/07/23 03:24:17;;;;;;;5.97;4.85;;;19.70;56.80;;;;;;1475261;40;20042;-60
2021/07/23 03:25:38;;;;;;;5.93;5.32;;;19.70;56.90;;;;;;1476140;40;20033;-60
2021/07/23 03:26:59;;;;;;;6.72;4.97;;;19.70;57.00;;;;;;1475805;40;20036;-60
2021/07/23 03:28:20;;;;;;;7.03;5.18;;;19.60;57.00;;;;;;1474857;40;20363;-60
2021/07/23 03:29:41;;;;;;;8.43;5.53;;;19.60;57.00;;;;;;1475984;40;20360;-60
2021/07/23 03:31:02;;;;;;;7.88;5.25;;;19.60;57.10;;;;;;1474724;40;20030;-60
2021/07/23 03:32:23;;;;;;;6.63;5.00;;;19.60;57.30;;;;;;1474960;40;20247;-60
2021/07/23 03:33:44;;;;;;;6.57;5.72;;;19.60;57.30;;;;;;1475225;40;20049;-60
2021/07/23 03:35:05;;;;;;;5.95;5.10;;;19.60;57.40;;;;;;1474850;40;20022;-60
2021/07/23 03:36:26;;;;;;;5.63;5.07;;;19.50;57.40;;;;;;1475160;40;20374;-60
2021/07/23 03:37:47;;;;;;;6.65;5.95;;;19.50;57.40;;;;;;1477342;40;20074;-60
2021/07/23 03:39:08;;;;;;;6.78;5.43;;;19.50;57.50;;;;;;1474510;40;20022;-60
2021/07/23 03:40:29;;;;;;;7.22;5.43;;;19.50;57.50;;;;;;1475364;40;20048;-60
2021/07/23 03:41:50;;;;;;;6.78;5.68;;;19.50;57.50;;;;;;1475901;40;20474;-60
2021/07/23 03:43:10;;;;;;;5.90;5.30;;;19.50;57.60;;;;;;1475713;40;20050;-60
2021/07/23 03:44:31;;;;;;;5.63;4.63;;;19.50;57.50;;;;;;1474914;40;20022;-60
2021/07/23 03:45:52;;;;;;;6.40;5.53;;;19.50;57.50;;;;;;1475987;40;20278;-60
2021/07/23 03:47:15;;;;;;;5.88;5.28;;;19.50;58.20;;;;;;1477782;40;20094;-60
2021/07/23 03:48:36;;;;;;;8.35;5.55;;;19.50;57.70;;;;;;1476251;40;20025;-60
2021/07/23 03:49:57;;;;;;;6.13;5.32;;;19.40;57.70;;;;;;1476286;40;20077;-60
2021/07/23 03:51:18;;;;;;;6.95;5.50;;;19.50;57.80;;;;;;1470012;40;20042;-60
2021/07/23 03:52:39;;;;;;;6.32;5.30;;;19.40;57.70;;;;;;1472692;40;20033;-60
2021/07/23 03:54:01;;;;;;;6.50;5.57;;;19.40;57.80;;;;;;1475106;40;20488;-60
2021/07/23 03:55:22;;;;;;;7.15;5.38;;;19.40;57.90;;;;;;1472747;40;20030;-60
2021/07/23 03:56:43;;;;;;;7.20;6.18;;;19.40;58.00;;;;;;1475519;40;20095;-60
2021/07/23 03:58:04;;;;;;;8.07;5.85;;;19.40;58.10;;;;;;1474350;40;20075;-60
2021/07/23 03:59:25;;;;;;;6.78;5.80;;;19.40;58.10;;;;;;1475017;40;20023;-60
2021/07/23 04:00:46;;;;;;;6.18;5.55;;;19.40;58.20;;;;;;1473724;40;20030;-60
2021/07/23 04:02:07;;;;;;;7.13;5.82;;;19.30;58.20;;;;;;1475045;40;20038;-60
2021/07/23 04:03:28;;;;;;;6.03;5.43;;;19.30;58.20;;;;;;1474172;40;20382;-60
2021/07/23 04:04:49;;;;;;;6.25;5.50;;;19.30;58.20;;;;;;1475093;40;20033;-61
2021/07/23 04:06:10;;;;;;;6.13;5.28;;;19.30;58.30;;;;;;1476014;40;20040;-60
2021/07/23 04:07:31;;;;;;;6.40;5.35;;;19.30;58.40;;;;;;1477816;40;20025;-60
2021/07/23 04:08:54;;;;;;;7.07;6.13;;;19.30;58.40;;;;;;1476426;40;20041;-60
2021/07/23 04:10:14;;;;;;;5.78;5.28;;;19.30;58.40;;;;;;1477220;40;20053;-60
2021/07/23 04:11:48;;;;;;;8.18;5.60;;;19.30;58.50;;;;;;1478305;40;20061;-60
2021/07/23 04:13:09;;;;;;;6.00;5.40;;;19.30;58.50;;;;;;1475178;40;20057;-60
2021/07/23 04:14:30;;;;;;;6.13;5.53;;;19.20;58.30;;;;;;1477586;40;20041;-60
2021/07/23 04:15:51;;;;;;;5.75;5.13;;;19.20;58.40;;;;;;1475841;40;20030;-60
2021/07/23 04:17:12;;;;;;;7.10;5.78;;;19.20;58.40;;;;;;1476087;40;20373;-60
2021/07/23 04:18:33;;;;;;;9.68;6.00;;;19.20;58.50;;;;;;1477599;40;20025;-60
2021/07/23 04:19:53;;;;;;;9.23;5.90;;;19.20;58.60;;;;;;1478071;40;20398;-60
2021/07/23 04:21:14;;;;;;;7.53;5.28;;;19.20;58.70;;;;;;1475388;40;20030;-60
2021/07/23 04:22:35;;;;;;;7.40;6.65;;;19.20;58.70;;;;;;1475828;40;20098;-60
2021/07/23 04:23:56;;;;;;;6.50;5.85;;;19.20;58.80;;;;;;1478188;40;20048;-60
2021/07/23 04:25:17;;;;;;;6.85;5.70;;;19.20;58.80;;;;;;1475946;40;20383;-60
2021/07/23 04:26:38;;;;;;;6.05;5.45;;;19.20;58.80;;;;;;1475471;40;20029;-60
2021/07/23 04:27:59;;;;;;;7.97;6.50;;;19.20;58.90;;;;;;1476196;40;20612;-60
2021/07/23 04:29:19;;;;;;;7.13;6.40;;;19.20;59.00;;;;;;1475411;40;20026;-60
2021/07/23 04:30:40;;;;;;;7.40;5.78;;;19.20;59.00;;;;;;1478181;40;20356;-60
2021/07/23 04:32:01;;;;;;;7.05;5.30;;;19.20;59.00;;;;;;1474995;40;20078;-60
2021/07/23 04:33:22;;;;;;;7.55;5.63;;;19.20;59.10;;;;;;1475171;40;20033;-60
2021/07/23 04:34:43;;;;;;;6.85;6.13;;;19.20;59.00;;;;;;1476401;40;20049;-60
2021/07/23 04:36:04;;;;;;;6.63;5.82;;;19.20;59.10;;;;;;1474342;40;20486;-60
2021/07/23 04:37:25;;;;;;;7.80;6.15;;;19.10;59.10;;;;;;1477783;40;20080;-60
2021/07/23 04:38:46;;;;;;;7.35;6.18;;;19.10;59.10;;;;;;1474436;40;20298;-60
2021/07/23 04:40:07;;;;;;;7.45;5.78;;;19.10;59.10;;;;;;1476229;40;20044;-60
2021/07/23 04:41:28;;;;;;;6.30;5.43;;;19.10;59.20;;;;;;1475600;40;20038;-60
2021/07/23 04:42:49;;;;;;;8.95;5.65;;;19.10;59.20;;;;;;1475187;40;20286;-60
2021/07/23 04:44:10;;;;;;;7.68;5.88;;;19.10;59.30;;;;;;1476733;40;20029;-60
2021/07/23 04:45:31;;;;;;;8.43;5.95;;;19.10;59.30;;;;;;1477079;40;20381;-60
2021/07/23 04:46:52;;;;;;;7.82;6.43;;;19.10;59.40;;;;;;1475886;40;20029;-60
2021/07/23 04:48:13;;;;;;;6.38;5.78;;;19.10;59.40;;;;;;1474917;40;20038;-60
2021/07/23 04:49:33;;;;;;;6.43;5.75;;;19.10;59.50;;;;;;1476592;40;20029;-60
2021/07/23 04:50:54;;;;;;;7.43;6.38;;;19.10;59.70;;;;;;1476750;40;20120;-60
2021/07/23 04:52:15;;;;;;;8.27;5.88;;;19.10;59.70;;;;;;1475045;40;20029;-60
2021/07/23 04:53:36;;;;;;;7.05;6.25;;;19.10;59.70;;;;;;1475802;40;20274;-60
2021/07/23 04:54:59;;;;;;;7.05;6.15;;;19.10;59.70;;;;;;1473853;40;20036;-60
2021/07/23 04:56:20;;;;;;;9.77;6.15;;;19.10;59.80;;;;;;1474692;40;20068;-60
2021/07/23 04:57:44;;;;;;;5.90;5.30;;;19.10;59.80;;;;;;1478826;40;20111;-60
2021/07/23 04:59:05;;;;;;;7.80;6.20;;;19.10;59.90;;;;;;1475664;40;20359;-60
2021/07/23 05:00:26;;;;;;;6.25;5.63;;;19.10;59.90;;;;;;1477036;40;20041;-60
2021/07/23 05:01:47;;;;;;;6.95;5.50;;;19.10;59.90;;;;;;1477466;40;20052;-60
2021/07/23 05:03:08;;;;;;;6.53;5.82;;;19.10;59.90;;;;;;1474229;40;20599;-60
2021/07/23 05:04:29;;;;;;;6.15;5.55;;;19.10;60.00;;;;;;1475016;40;20021;-60
2021/07/23 05:05:50;;;;;;;7.65;5.82;;;19.10;60.10;;;;;;1474583;40;20044;-60
2021/07/23 05:07:11;;;;;;;7.25;5.88;;;19.10;60.20;;;;;;1477421;40;20037;-60
2021/07/23 05:08:36;;;;;;;6.97;5.85;;;19.10;60.20;;;;;;1475098;40;20033;-60
2021/07/23 05:09:57;;;;;;;9.40;6.50;;;19.10;60.30;;;;;;1477042;40;20088;-60
2021/07/23 05:11:18;;;;;;;7.90;6.30;;;19.10;60.30;;;;;;1475756;40;20029;-60
2021/07/23 05:12:40;;;;;;;6.47;5.75;;;19.10;60.40;;;;;;1476831;40;20369;-60
2021/07/23 05:14:01;;;;;;;7.20;6.18;;;19.10;60.50;;;;;;1475078;40;20026;-60
2021/07/23 05:15:22;;;;;;;7.80;6.07;;;19.20;60.60;;;;;;1475279;40;20026;-60
2021/07/23 05:16:43;;;;;;;7.78;5.55;;;19.10;60.60;;;;;;1476647;40;20478;-60
2021/07/23 05:18:05;;;;;;;7.57;6.03;;;19.10;60.70;;;;;;1475333;40;20491;-60
2021/07/23 05:19:26;;;;;;;8.30;5.82;;;19.10;60.80;;;;;;1474545;40;20130;-60
2021/07/23 05:20:48;;;;;;;7.53;6.35;;;19.10;60.90;;;;;;1477790;40;20114;-60
2021/07/23 05:22:12;;;;;;;7.85;6.38;;;19.20;61.00;;;;;;1473507;40;20018;-61
2021/07/23 05:23:33;;;;;;;7.60;6.47;;;19.20;61.20;;;;;;1476164;40;20545;-62
2021/07/23 05:24:56;;;;;;;6.53;5.93;;;19.10;60.90;;;;;;1477694;40;20030;-61
2021/07/23 05:26:17;;;;;;;6.85;6.15;;;19.20;61.10;;;;;;1475395;40;20026;-61
2021/07/23 05:27:37;;;;;;;7.55;6.45;;;19.20;61.10;;;;;;1476090;40;20029;-61
2021/07/23 05:28:58;;;;;;;7.70;5.72;;;19.20;61.20;;;;;;1475474;40;21241;-61
2021/07/23 05:30:19;;;;;;;8.10;6.28;;;19.20;61.20;;;;;;1476714;40;20357;-61
2021/07/23 05:31:41;;;;;;;7.30;6.35;;;19.20;61.30;;;;;;1475588;40;20773;-61
2021/07/23 05:33:01;;;;;;;6.45;5.75;;;19.20;61.30;;;;;;1474734;40;20021;-61
2021/07/23 05:34:22;;;;;;;8.15;6.18;;;19.20;61.30;;;;;;1474457;40;20282;-61
2021/07/23 05:35:43;;;;;;;8.35;6.60;;;19.20;61.30;;;;;;1475552;40;20036;-61
2021/07/23 05:37:04;;;;;;;8.07;6.22;;;19.20;61.40;;;;;;1476463;40;20081;-61
2021/07/23 05:38:25;;;;;;;7.47;5.82;;;19.30;61.60;;;;;;1476041;40;20033;-61
2021/07/23 05:39:46;;;;;;;8.60;5.90;;;19.20;61.60;;;;;;1475379;40;20266;-61
2021/07/23 05:41:08;;;;;;;7.20;6.45;;;19.30;61.80;;;;;;1475475;40;20042;-61
2021/07/23 05:42:31;;;;;;;8.77;6.65;;;19.30;61.80;;;;;;1475900;40;20263;-61
2021/07/23 05:43:52;;;;;;;7.88;6.00;;;19.30;62.00;;;;;;1475112;40;20056;-62
2021/07/23 05:45:13;;;;;;;7.10;6.03;;;19.30;61.80;;;;;;1475294;40;20048;-61
2021/07/23 05:46:34;;;;;;;6.30;5.68;;;19.30;61.80;;;;;;1475321;40;20052;-61
2021/07/23 05:47:54;;;;;;;7.90;6.28;;;19.30;61.70;;;;;;1476606;40;20021;-61
2021/07/23 05:49:15;;;;;;;9.07;6.95;;;19.30;61.80;;;;;;1475719;40;20095;-60
2021/07/23 05:50:36;;;;;;;8.98;6.63;;;19.40;61.90;;;;;;1474989;40;20335;-61
2021/07/23 05:51:57;;;;;;;8.82;5.55;;;19.40;62.00;;;;;;1475903;40;20506;-61
2021/07/23 05:53:18;;;;;;;11.85;6.78;;;19.40;62.00;;;;;;1474080;40;20044;-62
2021/07/23 05:54:39;;;;;;;8.15;6.72;;;19.40;62.10;;;;;;1476201;40;20603;-62
2021/07/23 05:56:04;;;;;;;8.48;6.93;;;19.40;62.20;;;;;;1475768;40;20049;-61
2021/07/23 05:57:24;;;;;;;7.80;6.30;;;19.40;62.30;;;;;;1474194;40;20034;-61
2021/07/23 05:58:45;;;;;;;7.05;6.13;;;19.40;62.20;;;;;;1475148;40;20033;-61
2021/07/23 06:00:07;;;;;;;7.47;6.35;;;19.50;62.40;;;;;;1474747;40;20122;-61
2021/07/23 06:01:28;;;;;;;9.55;6.95;;;19.50;62.40;;;;;;1468242;40;20289;-61
2021/07/23 06:02:48;;;;;;;7.13;6.38;;;19.50;62.30;;;;;;1476353;40;20029;-61
2021/07/23 06:04:09;;;;;;;7.03;6.20;;;19.50;62.30;;;;;;1476011;40;20138;-61
2021/07/23 06:05:30;;;;;;;10.07;6.82;;;19.50;62.30;;;;;;1477285;40;20029;-61
2021/07/23 06:06:51;;;;;;;8.75;6.90;;;19.50;63.00;;;;;;1475105;40;20416;-61
2021/07/23 06:08:13;;;;;;;8.70;6.10;;;19.60;62.30;;;;;;1476164;40;20037;-61
2021/07/23 06:09:33;;;;;;;8.25;6.65;;;19.60;62.30;;;;;;1476653;40;20061;-61
2021/07/23 06:10:55;;;;;;;6.90;5.93;;;19.60;62.40;;;;;;1474065;40;20026;-61
2021/07/23 06:12:16;;;;;;;10.38;6.50;;;19.60;62.50;;;;;;1474931;40;20077;-61
2021/07/23 06:13:37;;;;;;;7.55;6.25;;;19.70;62.50;;;;;;1475524;40;20037;-61
2021/07/23 06:14:58;;;;;;;8.10;6.72;;;19.70;62.40;;;;;;1477087;40;20060;-61
2021/07/23 06:16:19;;;;;;;6.53;5.68;;;19.70;62.50;;;;;;1474509;40;20033;-61
2021/07/23 06:17:39;;;;;;;8.43;6.78;;;19.70;62.50;;;;;;1476056;40;20033;-61
2021/07/23 06:19:01;;;;;;;7.00;5.93;;;19.80;62.40;;;;;;1472997;40;22109;-61
2021/07/23 06:20:22;;;;;;;7.20;6.50;;;19.70;62.30;;;;;;1474371;40;20021;-61
2021/07/23 06:21:43;;;;;;;9.18;6.40;;;19.80;62.30;;;;;;1474987;40;20381;-61
2021/07/23 06:23:04;;;;;;;8.20;6.15;;;19.80;62.40;;;;;;1476794;40;20127;-61
2021/07/23 06:24:25;;;;;;;11.57;6.95;;;19.90;62.60;;;;;;1475101;40;20042;-61
2021/07/23 06:25:46;;;;;;;7.65;5.88;;;19.90;62.50;;;;;;1477770;40;20033;-61
2021/07/23 06:27:07;;;;;;;7.05;5.80;;;19.90;62.50;;;;;;1476034;40;20545;-61
2021/07/23 06:28:28;;;;;;;7.35;6.13;;;20.00;62.40;;;;;;1474965;40;20030;-61
2021/07/23 06:29:49;;;;;;;11.50;6.80;;;20.00;62.40;;;;;;1475933;40;20025;-61
2021/07/23 06:31:14;;;;;;;8.73;6.82;;;20.00;62.30;;;;;;1476403;40;20041;-61
2021/07/23 06:32:35;;;;;;;8.18;7.25;;;20.00;62.40;;;;;;1477544;40;20046;-61
2021/07/23 06:33:56;;;;;;;10.45;6.65;;;20.10;62.40;;;;;;1476439;40;20371;-61
2021/07/23 06:35:16;;;;;;;10.13;6.63;;;20.10;62.30;;;;;;1474014;40;20036;-61
2021/07/23 06:36:37;;;;;;;7.55;6.43;;;20.10;62.20;;;;;;1475598;40;20037;-61
2021/07/23 06:37:59;;;;;;;8.55;6.50;;;20.20;62.20;;;;;;1474302;40;20021;-61
2021/07/23 06:39:20;;;;;;;8.63;6.13;;;20.10;62.20;;;;;;1474306;40;20359;-61
2021/07/23 06:40:41;;;;;;;6.72;5.40;;;20.20;62.10;;;;;;1476335;40;20046;-61
2021/07/23 06:42:02;;;;;;;7.93;6.20;;;20.20;62.10;;;;;;1475122;40;20020;-61
2021/07/23 06:43:23;;;;;;;8.05;5.70;;;20.20;62.10;;;;;;1474304;40;20690;-61
2021/07/23 06:44:44;;;;;;;10.82;6.70;;;20.30;62.10;;;;;;1476013;40;20037;-61
2021/07/23 06:46:05;;;;;;;9.35;6.45;;;20.30;62.00;;;;;;1473319;40;20052;-61
2021/07/23 06:47:25;;;;;;;8.88;6.75;;;20.30;61.80;;;;;;1477134;40;20069;-61
2021/07/23 06:48:46;;;;;;;9.48;7.38;;;20.40;61.90;;;;;;1474510;40;20037;-61
2021/07/23 06:50:08;;;;;;;9.10;6.13;;;20.40;61.80;;;;;;1474554;40;20052;-61
2021/07/23 06:51:28;;;;;;;10.68;6.63;;;20.40;61.50;;;;;;1474742;40;20562;-61
2021/07/23 06:52:49;;;;;;;10.65;6.10;;;20.50;61.60;;;;;;1473063;40;20025;-61
2021/07/23 06:54:10;;;;;;;9.18;6.32;;;20.50;61.70;;;;;;1476351;40;20037;-61
2021/07/23 06:55:31;;;;;;;9.30;7.13;;;20.50;61.60;;;;;;1474481;40;20045;-61
2021/07/23 06:56:52;;;;;;;8.20;6.28;;;20.60;61.80;;;;;;1477375;40;20035;-61
2021/07/23 06:58:13;;;;;;;11.05;7.28;;;20.60;61.80;;;;;;1474981;40;20042;-61
2021/07/23 06:59:35;;;;;;;10.38;6.82;;;20.60;61.70;;;;;;1476597;40;20037;-61
2021/07/23 07:01:02;;;;;;;7.68;6.13;;;20.60;61.60;;;;;;1476436;40;20045;-61
2021/07/23 07:02:23;;;;;;;12.00;6.85;;;20.70;61.60;;;;;;1475714;40;20070;-62